sensor_id;sensor_type;location;lat;lon;timestamp;temperature;humidity
24412;DHT22;12544;46.760;15.942;2022-11-23T00:01:30;2.10;99.90
24412;DHT22;12544;46.760;15.942;2022-11-23T00:04:00;2.10;99.90
24412;DHT22;12544;46.760;15.942;2022-11-23T00:06:26;2.20;99.90
24412;DHT22;12544;46.760;15.942;2022-11-23T00:08:54;2.30;99.90
24412;DHT22;12544;46.760;15.942;2022-11-23T00:11:21;2.30;99.90
24412;DHT22;12544;46.760;15.942;2022-11-23T00:13:47;2.30;99.90
24412;DHT22;12544;46.760;15.942;2022-11-23T00:16:22;2.30;99.90
24412;DHT22;12544;46.760;15.942;2022-11-23T00:18:50;2.40;99.90
24412;DHT22;12544;46.760;15.942;2022-11-23T00:21:17;2.40;99.90
24412;DHT22;12544;46.760;15.942;2022-11-23T00:23:49;2.40;99.90
24412;DHT22;12544;46.760;15.942;2022-11-23T00:26:15;2.40;99.90
24412;DHT22;12544;46.760;15.942;2022-11-23T00:28:41;2.50;99.90
24412;DHT22;12544;46.760;15.942;2022-11-23T00:31:08;2.50;99.90
24412;DHT22;12544;46.760;15.942;2022-11-23T00:33:34;2.50;99.90
24412;DHT22;12544;46.760;15.942;2022-11-23T00:36:06;2.60;99.90
24412;DHT22;12544;46.760;15.942;2022-11-23T00:38:32;2.60;99.90
24412;DHT22;12544;46.760;15.942;2022-11-23T00:41:03;2.50;99.90
24412;DHT22;12544;46.760;15.942;2022-11-23T00:43:29;2.50;99.90
24412;DHT22;12544;46.760;15.942;2022-11-23T00:46:13;2.60;99.90
24412;DHT22;12544;46.760;15.942;2022-11-23T00:48:40;2.60;99.90
24412;DHT22;12544;46.760;15.942;2022-11-23T00:51:18;2.70;99.90
24412;DHT22;12544;46.760;15.942;2022-11-23T00:53:44;2.60;99.90
24412;DHT22;12544;46.760;15.942;2022-11-23T00:56:12;2.70;99.90
24412;DHT22;12544;46.760;15.942;2022-11-23T00:58:38;2.60;99.90
24412;DHT22;12544;46.760;15.942;2022-11-23T01:01:10;2.70;99.90
24412;DHT22;12544;46.760;15.942;2022-11-23T01:03:38;2.80;99.90
24412;DHT22;12544;46.760;15.942;2022-11-23T01:06:10;2.80;99.90
24412;DHT22;12544;46.760;15.942;2022-11-23T01:08:36;2.80;99.90
24412;DHT22;12544;46.760;15.942;2022-11-23T01:11:05;2.90;99.90
24412;DHT22;12544;46.760;15.942;2022-11-23T01:13:31;2.80;99.90
24412;DHT22;12544;46.760;15.942;2022-11-23T01:15:57;2.90;99.90
24412;DHT22;12544;46.760;15.942;2022-11-23T01:18:23;2.90;99.90
24412;DHT22;12544;46.760;15.942;2022-11-23T01:20:49;2.90;99.90
24412;DHT22;12544;46.760;15.942;2022-11-23T01:23:15;2.90;99.90
24412;DHT22;12544;46.760;15.942;2022-11-23T01:25:41;3.00;99.90
24412;DHT22;12544;46.760;15.942;2022-11-23T01:28:08;3.10;99.90
24412;DHT22;12544;46.760;15.942;2022-11-23T01:30:34;3.10;99.90
24412;DHT22;12544;46.760;15.942;2022-11-23T01:33:01;3.20;99.90
24412;DHT22;12544;46.760;15.942;2022-11-23T01:35:28;3.10;99.90
24412;DHT22;12544;46.760;15.942;2022-11-23T01:37:55;3.30;99.90
24412;DHT22;12544;46.760;15.942;2022-11-23T01:40:21;3.30;99.90
24412;DHT22;12544;46.760;15.942;2022-11-23T01:42:48;3.30;99.90
24412;DHT22;12544;46.760;15.942;2022-11-23T01:45:34;3.30;99.90
24412;DHT22;12544;46.760;15.942;2022-11-23T01:48:02;3.30;99.90
24412;DHT22;12544;46.760;15.942;2022-11-23T01:50:29;3.30;99.90
24412;DHT22;12544;46.760;15.942;2022-11-23T01:52:56;3.40;99.90
24412;DHT22;12544;46.760;15.942;2022-11-23T01:55:22;3.50;99.90
24412;DHT22;12544;46.760;15.942;2022-11-23T01:57:48;3.50;99.90
24412;DHT22;12544;46.760;15.942;2022-11-23T02:00:14;3.50;99.90
24412;DHT22;12544;46.760;15.942;2022-11-23T02:02:46;3.40;99.90
24412;DHT22;12544;46.760;15.942;2022-11-23T02:05:15;3.50;99.90
24412;DHT22;12544;46.760;15.942;2022-11-23T02:07:43;3.50;99.90
24412;DHT22;12544;46.760;15.942;2022-11-23T02:10:08;3.60;99.90
24412;DHT22;12544;46.760;15.942;2022-11-23T02:12:34;3.60;99.90
24412;DHT22;12544;46.760;15.942;2022-11-23T02:15:00;3.60;99.90
24412;DHT22;12544;46.760;15.942;2022-11-23T02:17:25;3.60;99.90
24412;DHT22;12544;46.760;15.942;2022-11-23T02:20:08;3.60;99.90
24412;DHT22;12544;46.760;15.942;2022-11-23T02:28:22;3.70;99.90
24412;DHT22;12544;46.760;15.942;2022-11-23T02:30:50;3.70;99.90
24412;DHT22;12544;46.760;15.942;2022-11-23T02:33:17;3.70;99.90
24412;DHT22;12544;46.760;15.942;2022-11-23T02:35:50;3.70;99.90
24412;DHT22;12544;46.760;15.942;2022-11-23T02:38:17;3.80;99.90
24412;DHT22;12544;46.760;15.942;2022-11-23T02:40:43;3.80;99.90
24412;DHT22;12544;46.760;15.942;2022-11-23T02:43:08;3.80;99.90
24412;DHT22;12544;46.760;15.942;2022-11-23T02:45:49;3.80;99.90
24412;DHT22;12544;46.760;15.942;2022-11-23T02:48:16;3.80;99.90
24412;DHT22;12544;46.760;15.942;2022-11-23T02:50:42;3.90;99.90
24412;DHT22;12544;46.760;15.942;2022-11-23T02:53:08;3.80;99.90
24412;DHT22;12544;46.760;15.942;2022-11-23T02:55:34;3.90;99.90
24412;DHT22;12544;46.760;15.942;2022-11-23T02:57:59;3.90;99.90
24412;DHT22;12544;46.760;15.942;2022-11-23T03:00:25;3.90;99.90
24412;DHT22;12544;46.760;15.942;2022-11-23T03:02:50;3.80;99.90
24412;DHT22;12544;46.760;15.942;2022-11-23T03:05:16;3.80;99.90
24412;DHT22;12544;46.760;15.942;2022-11-23T03:07:42;3.80;99.90
24412;DHT22;12544;46.760;15.942;2022-11-23T03:10:08;3.80;99.90
24412;DHT22;12544;46.760;15.942;2022-11-23T03:12:35;3.90;99.90
24412;DHT22;12544;46.760;15.942;2022-11-23T03:15:01;4.00;99.90
24412;DHT22;12544;46.760;15.942;2022-11-23T03:17:26;4.00;99.90
24412;DHT22;12544;46.760;15.942;2022-11-23T03:19:52;4.10;99.90
24412;DHT22;12544;46.760;15.942;2022-11-23T03:22:18;4.10;99.90
24412;DHT22;12544;46.760;15.942;2022-11-23T03:24:44;4.10;99.90
24412;DHT22;12544;46.760;15.942;2022-11-23T03:27:09;4.10;99.90
24412;DHT22;12544;46.760;15.942;2022-11-23T03:29:52;4.10;99.90
24412;DHT22;12544;46.760;15.942;2022-11-23T03:32:18;4.10;99.90
24412;DHT22;12544;46.760;15.942;2022-11-23T03:34:45;4.00;99.90
24412;DHT22;12544;46.760;15.942;2022-11-23T03:37:10;4.00;99.90
24412;DHT22;12544;46.760;15.942;2022-11-23T03:39:36;4.00;99.90
24412;DHT22;12544;46.760;15.942;2022-11-23T03:42:02;4.00;99.90
24412;DHT22;12544;46.760;15.942;2022-11-23T03:44:27;4.00;99.90
24412;DHT22;12544;46.760;15.942;2022-11-23T03:46:53;4.10;99.90
24412;DHT22;12544;46.760;15.942;2022-11-23T03:49:19;4.00;99.90
24412;DHT22;12544;46.760;15.942;2022-11-23T03:51:44;4.00;99.90
24412;DHT22;12544;46.760;15.942;2022-11-23T03:54:10;3.90;99.90
24412;DHT22;12544;46.760;15.942;2022-11-23T03:56:35;4.00;99.90
24412;DHT22;12544;46.760;15.942;2022-11-23T03:59:01;4.00;99.90
24412;DHT22;12544;46.760;15.942;2022-11-23T04:01:27;3.90;99.90
24412;DHT22;12544;46.760;15.942;2022-11-23T04:03:52;4.00;99.90
24412;DHT22;12544;46.760;15.942;2022-11-23T04:06:18;4.00;99.90
24412;DHT22;12544;46.760;15.942;2022-11-23T04:08:43;4.00;99.90
24412;DHT22;12544;46.760;15.942;2022-11-23T04:11:09;4.10;99.90
24412;DHT22;12544;46.760;15.942;2022-11-23T04:13:35;4.10;99.90
24412;DHT22;12544;46.760;15.942;2022-11-23T04:16:01;4.20;99.90
24412;DHT22;12544;46.760;15.942;2022-11-23T04:18:26;4.30;99.90
24412;DHT22;12544;46.760;15.942;2022-11-23T04:20:52;4.40;99.90
24412;DHT22;12544;46.760;15.942;2022-11-23T04:23:17;4.50;99.90
24412;DHT22;12544;46.760;15.942;2022-11-23T04:25:44;4.40;99.90
24412;DHT22;12544;46.760;15.942;2022-11-23T04:28:13;4.50;99.90
24412;DHT22;12544;46.760;15.942;2022-11-23T04:30:38;4.50;99.90
24412;DHT22;12544;46.760;15.942;2022-11-23T04:33:04;4.50;99.90
24412;DHT22;12544;46.760;15.942;2022-11-23T04:35:30;4.40;99.90
24412;DHT22;12544;46.760;15.942;2022-11-23T04:37:55;4.50;99.90
24412;DHT22;12544;46.760;15.942;2022-11-23T04:40:21;4.50;99.90
24412;DHT22;12544;46.760;15.942;2022-11-23T04:42:47;4.60;99.90
24412;DHT22;12544;46.760;15.942;2022-11-23T04:45:15;4.50;99.90
24412;DHT22;12544;46.760;15.942;2022-11-23T04:47:41;4.60;99.90
24412;DHT22;12544;46.760;15.942;2022-11-23T04:50:07;4.50;99.90
24412;DHT22;12544;46.760;15.942;2022-11-23T04:52:32;4.40;99.90
24412;DHT22;12544;46.760;15.942;2022-11-23T04:54:58;4.30;99.90
24412;DHT22;12544;46.760;15.942;2022-11-23T04:57:24;4.30;99.90
24412;DHT22;12544;46.760;15.942;2022-11-23T04:59:49;4.40;99.90
24412;DHT22;12544;46.760;15.942;2022-11-23T05:02:15;4.40;99.90
24412;DHT22;12544;46.760;15.942;2022-11-23T05:04:41;4.50;99.90
24412;DHT22;12544;46.760;15.942;2022-11-23T05:07:06;4.50;99.90
24412;DHT22;12544;46.760;15.942;2022-11-23T05:09:32;4.60;99.90
24412;DHT22;12544;46.760;15.942;2022-11-23T05:11:58;4.60;99.90
24412;DHT22;12544;46.760;15.942;2022-11-23T05:14:23;4.70;99.90
24412;DHT22;12544;46.760;15.942;2022-11-23T05:16:49;4.70;99.90
24412;DHT22;12544;46.760;15.942;2022-11-23T05:19:14;4.80;99.90
24412;DHT22;12544;46.760;15.942;2022-11-23T05:21:40;4.70;99.90
24412;DHT22;12544;46.760;15.942;2022-11-23T05:24:06;4.70;99.90
24412;DHT22;12544;46.760;15.942;2022-11-23T05:26:31;4.60;99.90
24412;DHT22;12544;46.760;15.942;2022-11-23T05:29:06;4.60;99.90
24412;DHT22;12544;46.760;15.942;2022-11-23T05:31:32;4.70;99.90
24412;DHT22;12544;46.760;15.942;2022-11-23T05:33:59;4.70;99.90
24412;DHT22;12544;46.760;15.942;2022-11-23T05:36:24;4.70;99.90
24412;DHT22;12544;46.760;15.942;2022-11-23T05:38:50;4.70;99.90
24412;DHT22;12544;46.760;15.942;2022-11-23T05:41:16;4.60;99.90
24412;DHT22;12544;46.760;15.942;2022-11-23T05:43:42;4.60;99.90
24412;DHT22;12544;46.760;15.942;2022-11-23T05:46:07;4.60;99.90
24412;DHT22;12544;46.760;15.942;2022-11-23T05:48:33;4.70;99.90
24412;DHT22;12544;46.760;15.942;2022-11-23T05:50:59;4.70;99.90
24412;DHT22;12544;46.760;15.942;2022-11-23T05:53:25;4.80;99.90
24412;DHT22;12544;46.760;15.942;2022-11-23T05:55:50;4.80;99.90
24412;DHT22;12544;46.760;15.942;2022-11-23T05:58:16;4.80;99.90
24412;DHT22;12544;46.760;15.942;2022-11-23T06:00:41;4.80;99.90
24412;DHT22;12544;46.760;15.942;2022-11-23T06:03:07;4.80;99.90
24412;DHT22;12544;46.760;15.942;2022-11-23T06:05:33;4.90;99.90
24412;DHT22;12544;46.760;15.942;2022-11-23T06:07:58;4.90;99.90
24412;DHT22;12544;46.760;15.942;2022-11-23T06:10:24;4.80;99.90
24412;DHT22;12544;46.760;15.942;2022-11-23T06:12:50;4.90;99.90
24412;DHT22;12544;46.760;15.942;2022-11-23T06:15:17;4.90;99.90
24412;DHT22;12544;46.760;15.942;2022-11-23T06:17:43;5.00;99.90
24412;DHT22;12544;46.760;15.942;2022-11-23T06:20:08;4.90;99.90
24412;DHT22;12544;46.760;15.942;2022-11-23T06:22:34;5.00;99.90
24412;DHT22;12544;46.760;15.942;2022-11-23T06:25:00;5.00;99.90
24412;DHT22;12544;46.760;15.942;2022-11-23T06:27:26;5.10;99.90
24412;DHT22;12544;46.760;15.942;2022-11-23T06:29:51;5.10;99.90
24412;DHT22;12544;46.760;15.942;2022-11-23T06:32:17;5.10;99.90
24412;DHT22;12544;46.760;15.942;2022-11-23T06:34:43;5.10;99.90
24412;DHT22;12544;46.760;15.942;2022-11-23T06:37:09;5.20;99.90
24412;DHT22;12544;46.760;15.942;2022-11-23T06:39:35;5.20;99.90
24412;DHT22;12544;46.760;15.942;2022-11-23T06:42:00;5.30;99.90
24412;DHT22;12544;46.760;15.942;2022-11-23T06:44:26;5.30;99.90
24412;DHT22;12544;46.760;15.942;2022-11-23T06:46:51;5.30;99.90
24412;DHT22;12544;46.760;15.942;2022-11-23T06:49:17;5.40;99.90
24412;DHT22;12544;46.760;15.942;2022-11-23T06:51:45;5.20;99.90
24412;DHT22;12544;46.760;15.942;2022-11-23T06:54:11;5.20;99.90
24412;DHT22;12544;46.760;15.942;2022-11-23T06:56:36;5.20;99.90
24412;DHT22;12544;46.760;15.942;2022-11-23T06:59:02;5.30;99.90
24412;DHT22;12544;46.760;15.942;2022-11-23T07:01:28;5.30;99.90
24412;DHT22;12544;46.760;15.942;2022-11-23T07:03:54;5.30;99.90
24412;DHT22;12544;46.760;15.942;2022-11-23T07:06:20;5.20;99.90
24412;DHT22;12544;46.760;15.942;2022-11-23T07:08:46;5.20;99.90
24412;DHT22;12544;46.760;15.942;2022-11-23T07:11:12;5.20;99.90
24412;DHT22;12544;46.760;15.942;2022-11-23T07:13:38;5.20;99.90
24412;DHT22;12544;46.760;15.942;2022-11-23T07:16:04;5.20;99.90
24412;DHT22;12544;46.760;15.942;2022-11-23T07:18:32;5.20;99.90
24412;DHT22;12544;46.760;15.942;2022-11-23T07:20:58;5.30;99.90
24412;DHT22;12544;46.760;15.942;2022-11-23T07:23:24;5.10;99.90
24412;DHT22;12544;46.760;15.942;2022-11-23T07:25:49;5.10;99.90
24412;DHT22;12544;46.760;15.942;2022-11-23T07:28:16;5.00;99.90
24412;DHT22;12544;46.760;15.942;2022-11-23T07:30:41;5.00;99.90
24412;DHT22;12544;46.760;15.942;2022-11-23T07:33:10;5.10;99.90
24412;DHT22;12544;46.760;15.942;2022-11-23T07:35:38;5.10;99.90
24412;DHT22;12544;46.760;15.942;2022-11-23T07:38:05;5.10;99.90
24412;DHT22;12544;46.760;15.942;2022-11-23T07:40:32;5.20;99.90
24412;DHT22;12544;46.760;15.942;2022-11-23T07:43:00;5.10;99.90
24412;DHT22;12544;46.760;15.942;2022-11-23T07:45:27;5.20;99.90
24412;DHT22;12544;46.760;15.942;2022-11-23T07:48:00;5.20;99.90
24412;DHT22;12544;46.760;15.942;2022-11-23T07:50:27;5.30;99.90
24412;DHT22;12544;46.760;15.942;2022-11-23T07:52:53;5.30;99.90
24412;DHT22;12544;46.760;15.942;2022-11-23T07:55:19;5.30;99.90
24412;DHT22;12544;46.760;15.942;2022-11-23T07:57:44;5.30;99.90
24412;DHT22;12544;46.760;15.942;2022-11-23T08:00:10;5.40;99.90
24412;DHT22;12544;46.760;15.942;2022-11-23T08:02:37;5.50;99.90
24412;DHT22;12544;46.760;15.942;2022-11-23T08:05:03;5.60;99.90
24412;DHT22;12544;46.760;15.942;2022-11-23T08:07:28;5.70;99.90
24412;DHT22;12544;46.760;15.942;2022-11-23T08:09:54;5.60;99.90
24412;DHT22;12544;46.760;15.942;2022-11-23T08:12:20;5.40;99.90
24412;DHT22;12544;46.760;15.942;2022-11-23T08:14:55;5.40;99.90
24412;DHT22;12544;46.760;15.942;2022-11-23T08:17:20;5.50;99.90
24412;DHT22;12544;46.760;15.942;2022-11-23T08:19:46;5.50;99.90
24412;DHT22;12544;46.760;15.942;2022-11-23T08:22:11;5.40;99.90
24412;DHT22;12544;46.760;15.942;2022-11-23T08:24:37;5.50;99.90
24412;DHT22;12544;46.760;15.942;2022-11-23T08:27:03;5.60;99.90
24412;DHT22;12544;46.760;15.942;2022-11-23T08:29:29;5.50;99.90
24412;DHT22;12544;46.760;15.942;2022-11-23T08:32:00;5.60;99.90
24412;DHT22;12544;46.760;15.942;2022-11-23T08:34:26;5.50;99.90
24412;DHT22;12544;46.760;15.942;2022-11-23T08:36:52;5.60;99.90
24412;DHT22;12544;46.760;15.942;2022-11-23T08:39:17;5.60;99.90
24412;DHT22;12544;46.760;15.942;2022-11-23T08:41:44;5.70;99.90
24412;DHT22;12544;46.760;15.942;2022-11-23T08:44:10;5.80;99.90
24412;DHT22;12544;46.760;15.942;2022-11-23T08:46:37;5.90;99.90
24412;DHT22;12544;46.760;15.942;2022-11-23T08:49:03;5.90;99.90
24412;DHT22;12544;46.760;15.942;2022-11-23T08:51:28;5.90;99.90
24412;DHT22;12544;46.760;15.942;2022-11-23T08:53:54;6.00;99.90
24412;DHT22;12544;46.760;15.942;2022-11-23T08:56:21;6.00;99.90
24412;DHT22;12544;46.760;15.942;2022-11-23T08:58:46;6.10;99.90
24412;DHT22;12544;46.760;15.942;2022-11-23T09:01:14;6.10;99.90
24412;DHT22;12544;46.760;15.942;2022-11-23T09:03:40;6.20;99.90
24412;DHT22;12544;46.760;15.942;2022-11-23T09:06:06;6.20;99.90
24412;DHT22;12544;46.760;15.942;2022-11-23T09:08:32;6.30;99.90
24412;DHT22;12544;46.760;15.942;2022-11-23T09:10:59;6.30;99.90
24412;DHT22;12544;46.760;15.942;2022-11-23T09:13:25;6.30;99.90
24412;DHT22;12544;46.760;15.942;2022-11-23T09:15:51;6.40;99.90
24412;DHT22;12544;46.760;15.942;2022-11-23T09:18:16;6.40;99.90
24412;DHT22;12544;46.760;15.942;2022-11-23T09:20:42;6.40;99.90
24412;DHT22;12544;46.760;15.942;2022-11-23T09:23:08;6.30;99.90
24412;DHT22;12544;46.760;15.942;2022-11-23T09:25:34;6.20;99.90
24412;DHT22;12544;46.760;15.942;2022-11-23T09:27:59;6.20;99.90
24412;DHT22;12544;46.760;15.942;2022-11-23T09:30:26;6.10;99.90
24412;DHT22;12544;46.760;15.942;2022-11-23T09:32:53;6.00;99.90
24412;DHT22;12544;46.760;15.942;2022-11-23T09:35:28;6.10;99.90
24412;DHT22;12544;46.760;15.942;2022-11-23T09:37:58;6.10;99.90
24412;DHT22;12544;46.760;15.942;2022-11-23T09:40:30;6.10;99.90
24412;DHT22;12544;46.760;15.942;2022-11-23T09:43:16;6.10;99.90
24412;DHT22;12544;46.760;15.942;2022-11-23T09:45:52;6.20;99.90
24412;DHT22;12544;46.760;15.942;2022-11-23T09:51:19;6.30;99.90
24412;DHT22;12544;46.760;15.942;2022-11-23T09:53:51;6.40;99.90
24412;DHT22;12544;46.760;15.942;2022-11-23T09:56:24;6.40;99.90
24412;DHT22;12544;46.760;15.942;2022-11-23T09:58:54;6.40;99.90
24412;DHT22;12544;46.760;15.942;2022-11-23T10:01:20;6.40;99.90
24412;DHT22;12544;46.760;15.942;2022-11-23T10:03:48;6.40;99.90
24412;DHT22;12544;46.760;15.942;2022-11-23T10:06:32;6.30;99.90
24412;DHT22;12544;46.760;15.942;2022-11-23T10:09:28;6.20;99.90
24412;DHT22;12544;46.760;15.942;2022-11-23T10:22:51;6.30;99.90
24412;DHT22;12544;46.760;15.942;2022-11-23T10:25:21;6.30;99.90
24412;DHT22;12544;46.760;15.942;2022-11-23T10:27:49;6.20;99.90
24412;DHT22;12544;46.760;15.942;2022-11-23T10:30:16;6.30;99.90
24412;DHT22;12544;46.760;15.942;2022-11-23T10:32:48;6.40;99.90
24412;DHT22;12544;46.760;15.942;2022-11-23T10:35:17;6.40;99.90
24412;DHT22;12544;46.760;15.942;2022-11-23T10:37:47;6.50;99.90
24412;DHT22;12544;46.760;15.942;2022-11-23T10:40:18;6.60;99.90
24412;DHT22;12544;46.760;15.942;2022-11-23T10:43:05;6.60;99.90
24412;DHT22;12544;46.760;15.942;2022-11-23T10:45:34;6.60;99.90
24412;DHT22;12544;46.760;15.942;2022-11-23T10:48:00;6.60;99.90
24412;DHT22;12544;46.760;15.942;2022-11-23T10:50:36;6.60;99.90
24412;DHT22;12544;46.760;15.942;2022-11-23T10:55:33;6.80;99.90
24412;DHT22;12544;46.760;15.942;2022-11-23T10:58:27;6.80;99.90
24412;DHT22;12544;46.760;15.942;2022-11-23T11:00:58;6.90;99.90
24412;DHT22;12544;46.760;15.942;2022-11-23T11:03:24;6.90;99.90
24412;DHT22;12544;46.760;15.942;2022-11-23T11:05:50;6.90;99.90
24412;DHT22;12544;46.760;15.942;2022-11-23T11:08:18;6.90;99.90
24412;DHT22;12544;46.760;15.942;2022-11-23T11:11:07;6.90;99.90
24412;DHT22;12544;46.760;15.942;2022-11-23T11:13:45;7.00;99.90
24412;DHT22;12544;46.760;15.942;2022-11-23T11:16:20;7.00;99.90
24412;DHT22;12544;46.760;15.942;2022-11-23T11:18:46;7.00;99.90
24412;DHT22;12544;46.760;15.942;2022-11-23T11:21:32;7.00;99.90
24412;DHT22;12544;46.760;15.942;2022-11-23T11:26:27;7.00;99.90
24412;DHT22;12544;46.760;15.942;2022-11-23T11:28:56;7.00;99.90
24412;DHT22;12544;46.760;15.942;2022-11-23T11:31:36;7.10;99.90
24412;DHT22;12544;46.760;15.942;2022-11-23T11:34:15;7.10;99.90
24412;DHT22;12544;46.760;15.942;2022-11-23T11:37:03;7.20;99.90
24412;DHT22;12544;46.760;15.942;2022-11-23T11:39:45;7.20;99.90
24412;DHT22;12544;46.760;15.942;2022-11-23T11:42:29;7.30;99.90
24412;DHT22;12544;46.760;15.942;2022-11-23T11:44:58;7.20;99.90
24412;DHT22;12544;46.760;15.942;2022-11-23T11:48:07;7.30;99.90
24412;DHT22;12544;46.760;15.942;2022-11-23T11:50:50;7.40;99.90
24412;DHT22;12544;46.760;15.942;2022-11-23T11:53:35;7.30;99.90
24412;DHT22;12544;46.760;15.942;2022-11-23T11:56:11;7.40;99.90
24412;DHT22;12544;46.760;15.942;2022-11-23T11:58:53;7.40;99.90
24412;DHT22;12544;46.760;15.942;2022-11-23T12:01:37;7.40;99.90
24412;DHT22;12544;46.760;15.942;2022-11-23T12:04:14;7.50;99.90
24412;DHT22;12544;46.760;15.942;2022-11-23T12:06:45;7.50;99.90
24412;DHT22;12544;46.760;15.942;2022-11-23T12:09:17;7.60;99.90
24412;DHT22;12544;46.760;15.942;2022-11-23T12:11:44;7.70;99.90
24412;DHT22;12544;46.760;15.942;2022-11-23T12:14:12;7.70;99.90
24412;DHT22;12544;46.760;15.942;2022-11-23T12:17:00;7.50;99.90
24412;DHT22;12544;46.760;15.942;2022-11-23T12:19:57;7.40;99.90
24412;DHT22;12544;46.760;15.942;2022-11-23T12:27:59;7.20;99.90
24412;DHT22;12544;46.760;15.942;2022-11-23T12:30:47;7.20;99.90
24412;DHT22;12544;46.760;15.942;2022-11-23T12:38:50;7.20;99.90
24412;DHT22;12544;46.760;15.942;2022-11-23T12:44:21;7.20;99.90
24412;DHT22;12544;46.760;15.942;2022-11-23T12:52:46;7.30;99.90
24412;DHT22;12544;46.760;15.942;2022-11-23T13:00:53;7.40;99.90
24412;DHT22;12544;46.760;15.942;2022-11-23T13:20:14;7.80;99.90
24412;DHT22;12544;46.760;15.942;2022-11-23T13:22:44;7.80;99.90
24412;DHT22;12544;46.760;15.942;2022-11-23T13:25:27;7.80;99.90
24412;DHT22;12544;46.760;15.942;2022-11-23T13:40:40;8.00;99.90
24412;DHT22;12544;46.760;15.942;2022-11-23T13:46:25;8.10;99.90
24412;DHT22;12544;46.760;15.942;2022-11-23T13:48:57;8.10;99.90
24412;DHT22;12544;46.760;15.942;2022-11-23T13:51:34;8.10;99.90
24412;DHT22;12544;46.760;15.942;2022-11-23T13:54:15;8.10;99.90
24412;DHT22;12544;46.760;15.942;2022-11-23T13:56:43;8.20;99.90
24412;DHT22;12544;46.760;15.942;2022-11-23T14:04:41;8.30;99.90
24412;DHT22;12544;46.760;15.942;2022-11-23T14:07:18;8.40;99.90
24412;DHT22;12544;46.760;15.942;2022-11-23T14:10:18;8.30;99.90
24412;DHT22;12544;46.760;15.942;2022-11-23T14:13:16;8.30;99.90
24412;DHT22;12544;46.760;15.942;2022-11-23T14:15:46;8.30;99.90
24412;DHT22;12544;46.760;15.942;2022-11-23T14:18:26;8.30;99.90
24412;DHT22;12544;46.760;15.942;2022-11-23T14:29:30;8.20;99.90
24412;DHT22;12544;46.760;15.942;2022-11-23T14:32:37;8.20;99.90
24412;DHT22;12544;46.760;15.942;2022-11-23T14:35:20;8.20;99.90
24412;DHT22;12544;46.760;15.942;2022-11-23T14:41:06;8.10;99.90
24412;DHT22;12544;46.760;15.942;2022-11-23T14:43:34;8.00;99.90
24412;DHT22;12544;46.760;15.942;2022-11-23T14:46:02;8.00;99.90
24412;DHT22;12544;46.760;15.942;2022-11-23T14:48:30;7.90;99.90
24412;DHT22;12544;46.760;15.942;2022-11-23T14:51:03;7.80;99.90
24412;DHT22;12544;46.760;15.942;2022-11-23T14:53:41;7.80;99.90
24412;DHT22;12544;46.760;15.942;2022-11-23T14:58:50;7.80;99.90
24412;DHT22;12544;46.760;15.942;2022-11-23T15:01:20;7.70;99.90
24412;DHT22;12544;46.760;15.942;2022-11-23T15:04:09;7.70;99.90
24412;DHT22;12544;46.760;15.942;2022-11-23T15:06:39;7.70;99.90
24412;DHT22;12544;46.760;15.942;2022-11-23T15:11:50;7.70;99.90
24412;DHT22;12544;46.760;15.942;2022-11-23T15:14:24;7.70;99.90
24412;DHT22;12544;46.760;15.942;2022-11-23T15:16:50;7.50;99.90
24412;DHT22;12544;46.760;15.942;2022-11-23T15:19:25;7.50;99.90
24412;DHT22;12544;46.760;15.942;2022-11-23T15:21:52;7.50;99.90
24412;DHT22;12544;46.760;15.942;2022-11-23T15:24:31;7.50;99.90
24412;DHT22;12544;46.760;15.942;2022-11-23T15:27:04;7.50;99.90
24412;DHT22;12544;46.760;15.942;2022-11-23T15:29:36;7.50;99.90
24412;DHT22;12544;46.760;15.942;2022-11-23T15:32:18;7.40;99.90
24412;DHT22;12544;46.760;15.942;2022-11-23T15:34:45;7.50;99.90
24412;DHT22;12544;46.760;15.942;2022-11-23T15:37:11;7.40;99.90
24412;DHT22;12544;46.760;15.942;2022-11-23T15:39:37;7.40;99.90
24412;DHT22;12544;46.760;15.942;2022-11-23T15:42:03;7.40;99.90
24412;DHT22;12544;46.760;15.942;2022-11-23T15:44:30;7.40;99.90
24412;DHT22;12544;46.760;15.942;2022-11-23T15:47:00;7.40;99.90
24412;DHT22;12544;46.760;15.942;2022-11-23T15:49:26;7.40;99.90
24412;DHT22;12544;46.760;15.942;2022-11-23T15:51:58;7.30;99.90
24412;DHT22;12544;46.760;15.942;2022-11-23T15:54:30;7.30;99.90
24412;DHT22;12544;46.760;15.942;2022-11-23T15:56:58;7.30;99.90
24412;DHT22;12544;46.760;15.942;2022-11-23T15:59:55;7.20;99.90
24412;DHT22;12544;46.760;15.942;2022-11-23T16:02:30;7.10;99.90
24412;DHT22;12544;46.760;15.942;2022-11-23T16:07:29;7.20;99.90
24412;DHT22;12544;46.760;15.942;2022-11-23T16:18:32;7.20;99.90
24412;DHT22;12544;46.760;15.942;2022-11-23T16:21:02;7.10;99.90
24412;DHT22;12544;46.760;15.942;2022-11-23T16:23:43;7.10;99.90
24412;DHT22;12544;46.760;15.942;2022-11-23T16:26:10;7.10;99.90
24412;DHT22;12544;46.760;15.942;2022-11-23T16:28:38;7.00;99.90
24412;DHT22;12544;46.760;15.942;2022-11-23T16:31:25;7.00;99.90
24412;DHT22;12544;46.760;15.942;2022-11-23T16:33:52;7.00;99.90
24412;DHT22;12544;46.760;15.942;2022-11-23T16:36:18;6.90;99.90
24412;DHT22;12544;46.760;15.942;2022-11-23T16:38:43;6.90;99.90
24412;DHT22;12544;46.760;15.942;2022-11-23T16:41:09;6.90;99.90
24412;DHT22;12544;46.760;15.942;2022-11-23T16:43:35;6.90;99.90
24412;DHT22;12544;46.760;15.942;2022-11-23T16:46:01;6.90;99.90
24412;DHT22;12544;46.760;15.942;2022-11-23T16:50:54;6.90;99.90
24412;DHT22;12544;46.760;15.942;2022-11-23T16:53:20;6.90;99.90
24412;DHT22;12544;46.760;15.942;2022-11-23T16:55:54;6.90;99.90
24412;DHT22;12544;46.760;15.942;2022-11-23T16:58:21;6.90;99.90
24412;DHT22;12544;46.760;15.942;2022-11-23T17:00:47;6.80;99.90
24412;DHT22;12544;46.760;15.942;2022-11-23T17:03:14;6.80;99.90
24412;DHT22;12544;46.760;15.942;2022-11-23T17:05:40;6.70;99.90
24412;DHT22;12544;46.760;15.942;2022-11-23T17:08:06;6.70;99.90
24412;DHT22;12544;46.760;15.942;2022-11-23T17:10:32;6.70;99.90
24412;DHT22;12544;46.760;15.942;2022-11-23T17:12:58;6.70;99.90
24412;DHT22;12544;46.760;15.942;2022-11-23T17:15:23;6.70;99.90
24412;DHT22;12544;46.760;15.942;2022-11-23T17:17:49;6.70;99.90
24412;DHT22;12544;46.760;15.942;2022-11-23T17:20:16;6.70;99.90
24412;DHT22;12544;46.760;15.942;2022-11-23T17:22:42;6.70;99.90
24412;DHT22;12544;46.760;15.942;2022-11-23T17:25:09;6.70;99.90
24412;DHT22;12544;46.760;15.942;2022-11-23T17:27:38;6.70;99.90
24412;DHT22;12544;46.760;15.942;2022-11-23T17:30:15;6.70;99.90
24412;DHT22;12544;46.760;15.942;2022-11-23T17:32:40;6.70;99.90
24412;DHT22;12544;46.760;15.942;2022-11-23T17:35:06;6.70;99.90
24412;DHT22;12544;46.760;15.942;2022-11-23T17:37:32;6.70;99.90
24412;DHT22;12544;46.760;15.942;2022-11-23T17:39:58;6.70;99.90
24412;DHT22;12544;46.760;15.942;2022-11-23T17:42:23;6.70;99.90